TimePST,TemperatureF,Dew PointF,Humidity,Sea Level PressureIn,VisibilityMPH,Wind Direction,Wind SpeedMPH,Gust SpeedMPH,PrecipitationIn,Events,Conditions,WindDirDegrees,DateUTC
12:54 AM,50.0,44.1,80,30.27,10.0,West,6.9,-,N/A,,Clear,280,2013-02-23 08:54:00
1:54 AM,50.0,45.0,83,30.25,10.0,WNW,10.4,-,N/A,,Mostly Cloudy,290,2013-02-23 09:54:00
2:54 AM,50.0,46.0,86,30.25,10.0,West,10.4,-,N/A,,Overcast,270,2013-02-23 10:54:00
3:54 AM,51.1,46.9,86,30.24,10.0,West,8.1,-,N/A,,Overcast,260,2013-02-23 11:54:00
4:12 AM,51.8,48.2,88,30.21,10.0,WSW,8.1,-,N/A,,Overcast,250,2013-02-23 12:12:00
4:54 AM,50.0,46.9,89,30.23,10.0,WNW,12.7,-,N/A,,Overcast,290,2013-02-23 12:54:00
5:09 AM,50.0,46.4,87,30.20,10.0,WNW,10.4,-,N/A,,Mostly Cloudy,290,2013-02-23 13:09:00
5:54 AM,48.9,44.1,83,30.23,10.0,WNW,10.4,-,N/A,,Clear,290,2013-02-23 13:54:00
6:54 AM,46.9,43.0,86,30.25,10.0,NW,8.1,-,N/A,,Clear,310,2013-02-23 14:54:00
7:54 AM,50.0,44.1,80,30.27,10.0,Calm,Calm,-,N/A,,Clear,0,2013-02-23 15:54:00
8:54 AM,52.0,39.0,61,30.29,10.0,NNW,10.4,-,N/A,,Clear,340,2013-02-23 16:54:00
9:54 AM,54.0,36.0,51,30.29,10.0,NW,11.5,-,N/A,,Clear,320,2013-02-23 17:54:00
10:54 AM,55.0,37.0,51,30.28,10.0,WNW,15.0,19.6,N/A,,Clear,300,2013-02-23 18:54:00
11:54 AM,55.9,37.9,51,30.26,10.0,West,17.3,-,N/A,,Clear,280,2013-02-23 19:54:00
12:54 PM,57.0,36.0,45,30.24,10.0,WNW,17.3,-,N/A,,Clear,290,2013-02-23 20:54:00
1:54 PM,57.9,34.0,41,30.22,10.0,West,16.1,24.2,N/A,,Clear,270,2013-02-23 21:54:00
2:54 PM,57.9,41.0,53,30.21,10.0,West,15.0,23.0,N/A,,Clear,280,2013-02-23 22:54:00
3:54 PM,55.9,41.0,57,30.20,10.0,West,13.8,21.9,N/A,,Clear,280,2013-02-23 23:54:00
4:54 PM,55.9,39.9,55,30.20,10.0,WNW,12.7,-,N/A,,Clear,290,2013-02-24 00:54:00
5:54 PM,53.1,39.0,59,30.21,10.0,WNW,11.5,-,N/A,,Clear,290,2013-02-24 01:54:00
6:54 PM,52.0,36.0,54,30.23,10.0,NNW,9.2,-,N/A,,Clear,340,2013-02-24 02:54:00
7:54 PM,51.1,36.0,56,30.23,10.0,NNW,11.5,-,N/A,,Clear,340,2013-02-24 03:54:00
8:54 PM,51.1,36.0,56,30.24,10.0,NNW,9.2,-,N/A,,Clear,340,2013-02-24 04:54:00
9:54 PM,50.0,36.0,59,30.25,10.0,North,9.2,-,N/A,,Clear,350,2013-02-24 05:54:00
10:54 PM,46.9,35.1,63,30.25,10.0,NNW,5.8,-,N/A,,Clear,340,2013-02-24 06:54:00
11:54 PM,48.0,33.1,56,30.25,10.0,North,5.8,-,N/A,,Clear,10,2013-02-24 07:54:00